sensor_id;sensor_type;location;lat;lon;timestamp;pressure;altitude;pressure_sealevel;temperature;humidity
48846;BME280;34665;51.886;5.436;2022-07-24T00:00:32;101746.16;;;25.72;100.00
48846;BME280;34665;51.886;5.436;2022-07-24T00:02:57;101743.44;;;25.56;100.00
48846;BME280;34665;51.886;5.436;2022-07-24T00:05:23;101741.25;;;25.58;100.00
48846;BME280;34665;51.886;5.436;2022-07-24T00:07:48;101738.81;;;25.57;100.00
48846;BME280;34665;51.886;5.436;2022-07-24T00:10:14;101736.84;;;25.73;100.00
48846;BME280;34665;51.886;5.436;2022-07-24T00:12:39;101734.66;;;25.75;100.00
48846;BME280;34665;51.886;5.436;2022-07-24T00:15:06;101736.00;;;25.88;100.00
48846;BME280;34665;51.886;5.436;2022-07-24T00:17:31;101735.84;;;26.40;100.00
48846;BME280;34665;51.886;5.436;2022-07-24T00:19:57;101737.41;;;25.85;100.00
48846;BME280;34665;51.886;5.436;2022-07-24T00:22:23;101741.72;;;25.97;100.00
48846;BME280;34665;51.886;5.436;2022-07-24T00:24:49;101739.53;;;25.99;100.00
48846;BME280;34665;51.886;5.436;2022-07-24T00:27:15;101744.81;;;25.59;100.00
48846;BME280;34665;51.886;5.436;2022-07-24T00:29:40;101744.78;;;25.85;100.00
48846;BME280;34665;51.886;5.436;2022-07-24T00:32:07;101733.88;;;25.59;100.00
48846;BME280;34665;51.886;5.436;2022-07-24T00:34:32;101742.31;;;25.78;100.00
48846;BME280;34665;51.886;5.436;2022-07-24T00:36:57;101737.13;;;25.45;100.00
48846;BME280;34665;51.886;5.436;2022-07-24T00:39:23;101735.47;;;25.44;100.00
48846;BME280;34665;51.886;5.436;2022-07-24T00:41:48;101729.47;;;25.42;100.00
48846;BME280;34665;51.886;5.436;2022-07-24T00:44:17;101731.94;;;25.18;100.00
48846;BME280;34665;51.886;5.436;2022-07-24T00:46:44;101728.91;;;24.99;100.00
48846;BME280;34665;51.886;5.436;2022-07-24T00:49:15;101728.63;;;25.05;100.00
48846;BME280;34665;51.886;5.436;2022-07-24T00:51:43;101728.38;;;25.33;100.00
48846;BME280;34665;51.886;5.436;2022-07-24T00:54:11;101728.66;;;25.42;100.00
48846;BME280;34665;51.886;5.436;2022-07-24T00:56:38;101733.59;;;25.19;100.00
48846;BME280;34665;51.886;5.436;2022-07-24T00:59:04;101728.09;;;25.29;100.00
48846;BME280;34665;51.886;5.436;2022-07-24T01:01:30;101729.22;;;25.23;100.00
48846;BME280;34665;51.886;5.436;2022-07-24T01:03:56;101729.50;;;25.27;100.00
48846;BME280;34665;51.886;5.436;2022-07-24T01:06:22;101726.47;;;25.28;100.00
48846;BME280;34665;51.886;5.436;2022-07-24T01:08:49;101726.44;;;25.33;100.00
48846;BME280;34665;51.886;5.436;2022-07-24T01:11:14;101724.25;;;25.30;100.00
48846;BME280;34665;51.886;5.436;2022-07-24T01:13:41;101730.06;;;25.50;100.00
48846;BME280;34665;51.886;5.436;2022-07-24T01:16:09;101727.53;;;25.32;100.00
48846;BME280;34665;51.886;5.436;2022-07-24T01:18:36;101719.34;;;25.06;100.00
48846;BME280;34665;51.886;5.436;2022-07-24T01:21:03;101713.84;;;24.91;100.00
48846;BME280;34665;51.886;5.436;2022-07-24T01:23:29;101716.06;;;24.94;100.00
48846;BME280;34665;51.886;5.436;2022-07-24T01:25:54;101714.09;;;24.79;100.00
48846;BME280;34665;51.886;5.436;2022-07-24T01:28:20;101709.75;;;24.88;100.00
48846;BME280;34665;51.886;5.436;2022-07-24T01:30:46;101704.00;;;24.90;100.00
48846;BME280;34665;51.886;5.436;2022-07-24T01:33:12;101699.91;;;24.98;100.00
48846;BME280;34665;51.886;5.436;2022-07-24T01:35:38;101698.00;;;24.93;100.00
48846;BME280;34665;51.886;5.436;2022-07-24T01:38:03;101698.22;;;24.76;100.00
48846;BME280;34665;51.886;5.436;2022-07-24T01:40:29;101701.50;;;24.78;100.00
48846;BME280;34665;51.886;5.436;2022-07-24T01:42:54;101697.66;;;24.63;100.00
48846;BME280;34665;51.886;5.436;2022-07-24T01:45:20;101708.28;;;24.65;100.00
48846;BME280;34665;51.886;5.436;2022-07-24T01:47:45;101700.38;;;24.63;100.00
48846;BME280;34665;51.886;5.436;2022-07-24T01:50:11;101704.31;;;25.09;100.00
48846;BME280;34665;51.886;5.436;2022-07-24T01:52:37;101698.53;;;25.11;100.00
48846;BME280;34665;51.886;5.436;2022-07-24T01:55:04;101701.72;;;24.61;100.00
48846;BME280;34665;51.886;5.436;2022-07-24T01:57:31;101702.44;;;24.25;100.00
48846;BME280;34665;51.886;5.436;2022-07-24T01:59:58;101701.13;;;24.43;100.00
48846;BME280;34665;51.886;5.436;2022-07-24T02:02:25;101696.13;;;24.19;100.00
48846;BME280;34665;51.886;5.436;2022-07-24T02:04:51;101698.81;;;24.09;100.00
48846;BME280;34665;51.886;5.436;2022-07-24T02:07:16;101702.94;;;24.12;100.00
48846;BME280;34665;51.886;5.436;2022-07-24T02:09:42;101710.63;;;24.25;100.00
48846;BME280;34665;51.886;5.436;2022-07-24T02:12:08;101710.16;;;24.49;100.00
48846;BME280;34665;51.886;5.436;2022-07-24T02:14:33;101711.56;;;24.57;100.00
48846;BME280;34665;51.886;5.436;2022-07-24T02:16:58;101710.72;;;24.46;100.00
48846;BME280;34665;51.886;5.436;2022-07-24T02:19:24;101706.59;;;24.38;100.00
48846;BME280;34665;51.886;5.436;2022-07-24T02:21:50;101716.56;;;24.06;100.00
48846;BME280;34665;51.886;5.436;2022-07-24T02:24:16;101705.97;;;24.20;100.00
48846;BME280;34665;51.886;5.436;2022-07-24T02:26:41;101703.81;;;24.28;100.00
48846;BME280;34665;51.886;5.436;2022-07-24T02:29:07;101698.44;;;24.64;100.00
48846;BME280;34665;51.886;5.436;2022-07-24T02:31:33;101705.03;;;24.68;100.00
48846;BME280;34665;51.886;5.436;2022-07-24T02:33:59;101696.34;;;24.76;100.00
48846;BME280;34665;51.886;5.436;2022-07-24T02:36:25;101692.97;;;24.59;100.00
48846;BME280;34665;51.886;5.436;2022-07-24T02:38:51;101688.94;;;24.77;100.00
48846;BME280;34665;51.886;5.436;2022-07-24T02:41:17;101689.84;;;24.19;100.00
48846;BME280;34665;51.886;5.436;2022-07-24T02:43:43;101684.63;;;24.12;100.00
48846;BME280;34665;51.886;5.436;2022-07-24T02:46:08;101681.72;;;24.34;100.00
48846;BME280;34665;51.886;5.436;2022-07-24T02:48:34;101677.91;;;24.36;100.00
48846;BME280;34665;51.886;5.436;2022-07-24T02:50:59;101687.75;;;24.47;100.00
48846;BME280;34665;51.886;5.436;2022-07-24T02:53:25;101687.25;;;24.71;100.00
48846;BME280;34665;51.886;5.436;2022-07-24T02:55:50;101685.81;;;24.37;100.00
48846;BME280;34665;51.886;5.436;2022-07-24T02:58:16;101680.88;;;24.34;100.00
48846;BME280;34665;51.886;5.436;2022-07-24T03:00:41;101685.81;;;24.42;100.00
48846;BME280;34665;51.886;5.436;2022-07-24T03:03:07;101691.66;;;24.77;100.00
48846;BME280;34665;51.886;5.436;2022-07-24T03:05:32;101683.38;;;24.56;100.00
48846;BME280;34665;51.886;5.436;2022-07-24T03:07:58;101684.22;;;24.57;100.00
48846;BME280;34665;51.886;5.436;2022-07-24T03:10:23;101694.47;;;24.18;100.00
48846;BME280;34665;51.886;5.436;2022-07-24T03:12:49;101693.38;;;24.14;100.00
48846;BME280;34665;51.886;5.436;2022-07-24T03:15:14;101692.56;;;24.14;100.00
48846;BME280;34665;51.886;5.436;2022-07-24T03:17:54;101686.97;;;24.62;100.00
48846;BME280;34665;51.886;5.436;2022-07-24T03:20:21;101688.59;;;24.63;100.00
48846;BME280;34665;51.886;5.436;2022-07-24T03:22:47;101678.69;;;24.26;100.00
48846;BME280;34665;51.886;5.436;2022-07-24T03:25:13;101673.84;;;23.90;100.00
48846;BME280;34665;51.886;5.436;2022-07-24T03:27:40;101677.28;;;23.70;100.00
48846;BME280;34665;51.886;5.436;2022-07-24T03:30:06;101668.66;;;23.88;100.00
48846;BME280;34665;51.886;5.436;2022-07-24T03:32:32;101671.28;;;23.73;100.00
48846;BME280;34665;51.886;5.436;2022-07-24T03:34:57;101665.31;;;23.33;100.00
48846;BME280;34665;51.886;5.436;2022-07-24T03:37:22;101668.16;;;23.16;100.00
48846;BME280;34665;51.886;5.436;2022-07-24T03:39:48;101665.22;;;23.23;100.00
48846;BME280;34665;51.886;5.436;2022-07-24T03:42:14;101662.16;;;23.19;100.00
48846;BME280;34665;51.886;5.436;2022-07-24T03:44:39;101661.53;;;23.87;100.00
48846;BME280;34665;51.886;5.436;2022-07-24T03:47:05;101664.34;;;23.49;100.00
48846;BME280;34665;51.886;5.436;2022-07-24T03:49:31;101659.66;;;23.45;100.00
48846;BME280;34665;51.886;5.436;2022-07-24T03:51:56;101659.84;;;23.33;100.00
48846;BME280;34665;51.886;5.436;2022-07-24T03:54:22;101668.44;;;23.52;100.00
48846;BME280;34665;51.886;5.436;2022-07-24T03:56:48;101667.81;;;23.40;100.00
48846;BME280;34665;51.886;5.436;2022-07-24T03:59:14;101658.66;;;23.24;100.00
48846;BME280;34665;51.886;5.436;2022-07-24T04:01:39;101661.78;;;23.32;100.00
48846;BME280;34665;51.886;5.436;2022-07-24T04:04:05;101667.16;;;23.27;100.00
48846;BME280;34665;51.886;5.436;2022-07-24T04:06:31;101659.38;;;23.41;100.00
48846;BME280;34665;51.886;5.436;2022-07-24T04:08:58;101667.28;;;23.43;100.00
48846;BME280;34665;51.886;5.436;2022-07-24T04:11:25;101659.59;;;23.34;100.00
48846;BME280;34665;51.886;5.436;2022-07-24T04:13:50;101658.72;;;23.72;100.00
48846;BME280;34665;51.886;5.436;2022-07-24T04:16:16;101657.00;;;23.55;100.00
48846;BME280;34665;51.886;5.436;2022-07-24T04:18:41;101661.06;;;23.53;100.00
48846;BME280;34665;51.886;5.436;2022-07-24T04:21:07;101664.34;;;23.49;100.00
48846;BME280;34665;51.886;5.436;2022-07-24T04:23:33;101667.78;;;23.34;100.00
48846;BME280;34665;51.886;5.436;2022-07-24T04:25:59;101666.59;;;23.63;100.00
48846;BME280;34665;51.886;5.436;2022-07-24T04:28:24;101666.03;;;23.61;100.00
48846;BME280;34665;51.886;5.436;2022-07-24T04:30:51;101672.56;;;23.22;100.00
48846;BME280;34665;51.886;5.436;2022-07-24T04:33:16;101680.75;;;23.22;100.00
48846;BME280;34665;51.886;5.436;2022-07-24T04:35:42;101684.72;;;23.37;100.00
48846;BME280;34665;51.886;5.436;2022-07-24T04:38:08;101689.88;;;23.33;100.00
48846;BME280;34665;51.886;5.436;2022-07-24T04:40:34;101687.75;;;23.83;100.00
48846;BME280;34665;51.886;5.436;2022-07-24T04:42:59;101688.69;;;24.04;100.00
48846;BME280;34665;51.886;5.436;2022-07-24T04:45:25;101684.41;;;23.33;100.00
48846;BME280;34665;51.886;5.436;2022-07-24T04:47:50;101685.13;;;23.23;100.00
48846;BME280;34665;51.886;5.436;2022-07-24T04:50:16;101680.81;;;23.27;100.00
48846;BME280;34665;51.886;5.436;2022-07-24T04:52:42;101674.91;;;23.41;100.00
48846;BME280;34665;51.886;5.436;2022-07-24T04:55:09;101679.09;;;23.54;100.00
48846;BME280;34665;51.886;5.436;2022-07-24T04:57:35;101680.44;;;23.51;100.00
48846;BME280;34665;51.886;5.436;2022-07-24T05:00:01;101680.22;;;23.58;100.00
48846;BME280;34665;51.886;5.436;2022-07-24T05:02:26;101685.00;;;23.83;100.00
48846;BME280;34665;51.886;5.436;2022-07-24T05:04:52;101673.59;;;24.66;100.00
48846;BME280;34665;51.886;5.436;2022-07-24T05:07:17;101668.69;;;23.99;100.00
48846;BME280;34665;51.886;5.436;2022-07-24T05:09:43;101674.03;;;24.26;100.00
48846;BME280;34665;51.886;5.436;2022-07-24T05:12:08;101680.69;;;23.98;100.00
48846;BME280;34665;51.886;5.436;2022-07-24T05:14:34;101670.19;;;23.74;100.00
48846;BME280;34665;51.886;5.436;2022-07-24T05:16:59;101676.41;;;24.02;100.00
48846;BME280;34665;51.886;5.436;2022-07-24T05:19:25;101673.13;;;24.05;100.00
48846;BME280;34665;51.886;5.436;2022-07-24T05:21:50;101681.91;;;24.17;100.00
48846;BME280;34665;51.886;5.436;2022-07-24T05:24:16;101686.16;;;23.98;100.00
48846;BME280;34665;51.886;5.436;2022-07-24T05:26:41;101691.50;;;24.20;100.00
48846;BME280;34665;51.886;5.436;2022-07-24T05:29:07;101687.50;;;24.64;100.00
48846;BME280;34665;51.886;5.436;2022-07-24T05:31:33;101696.78;;;24.53;100.00
48846;BME280;34665;51.886;5.436;2022-07-24T05:33:59;101694.06;;;24.58;100.00
48846;BME280;34665;51.886;5.436;2022-07-24T05:36:27;101697.06;;;24.51;100.00
48846;BME280;34665;51.886;5.436;2022-07-24T05:38:53;101704.38;;;24.25;100.00
48846;BME280;34665;51.886;5.436;2022-07-24T05:41:19;101699.53;;;23.94;100.00
48846;BME280;34665;51.886;5.436;2022-07-24T05:43:45;101698.38;;;23.80;100.00
48846;BME280;34665;51.886;5.436;2022-07-24T05:46:11;101698.97;;;23.49;100.00
48846;BME280;34665;51.886;5.436;2022-07-24T05:48:36;101696.41;;;23.70;100.00
48846;BME280;34665;51.886;5.436;2022-07-24T05:51:02;101696.31;;;23.54;100.00
48846;BME280;34665;51.886;5.436;2022-07-24T05:53:28;101703.97;;;23.25;100.00
48846;BME280;34665;51.886;5.436;2022-07-24T05:55:53;101708.09;;;23.27;100.00
48846;BME280;34665;51.886;5.436;2022-07-24T05:58:19;101705.28;;;23.98;100.00
48846;BME280;34665;51.886;5.436;2022-07-24T06:00:45;101702.25;;;24.47;100.00
48846;BME280;34665;51.886;5.436;2022-07-24T06:03:11;101700.88;;;24.40;100.00
48846;BME280;34665;51.886;5.436;2022-07-24T06:05:36;101706.66;;;24.59;100.00
48846;BME280;34665;51.886;5.436;2022-07-24T06:08:03;101706.66;;;24.64;100.00
48846;BME280;34665;51.886;5.436;2022-07-24T06:10:28;101704.69;;;24.39;100.00
48846;BME280;34665;51.886;5.436;2022-07-24T06:12:54;101707.19;;;24.45;100.00
48846;BME280;34665;51.886;5.436;2022-07-24T06:15:20;101712.75;;;24.82;100.00
48846;BME280;34665;51.886;5.436;2022-07-24T06:17:45;101713.75;;;24.49;100.00
48846;BME280;34665;51.886;5.436;2022-07-24T06:20:12;101719.41;;;24.32;100.00
48846;BME280;34665;51.886;5.436;2022-07-24T06:22:38;101711.28;;;24.53;100.00
48846;BME280;34665;51.886;5.436;2022-07-24T06:25:05;101712.13;;;24.54;100.00
48846;BME280;34665;51.886;5.436;2022-07-24T06:27:31;101717.41;;;24.81;100.00
48846;BME280;34665;51.886;5.436;2022-07-24T06:29:57;101719.03;;;24.77;100.00
48846;BME280;34665;51.886;5.436;2022-07-24T06:32:22;101708.94;;;24.93;100.00
48846;BME280;34665;51.886;5.436;2022-07-24T06:34:48;101712.22;;;25.05;100.00
48846;BME280;34665;51.886;5.436;2022-07-24T06:37:13;101710.59;;;25.25;100.00
48846;BME280;34665;51.886;5.436;2022-07-24T06:39:39;101716.03;;;24.79;100.00
48846;BME280;34665;51.886;5.436;2022-07-24T06:42:04;101716.03;;;24.84;100.00
48846;BME280;34665;51.886;5.436;2022-07-24T06:44:30;101719.38;;;24.27;100.00
48846;BME280;34665;51.886;5.436;2022-07-24T06:46:58;101703.84;;;24.38;100.00
48846;BME280;34665;51.886;5.436;2022-07-24T06:49:23;101698.72;;;24.57;100.00
48846;BME280;34665;51.886;5.436;2022-07-24T06:51:49;101698.94;;;24.35;100.00
48846;BME280;34665;51.886;5.436;2022-07-24T06:54:14;101700.63;;;24.67;100.00
48846;BME280;34665;51.886;5.436;2022-07-24T06:56:40;101709.66;;;24.57;100.00
48846;BME280;34665;51.886;5.436;2022-07-24T06:59:05;101704.00;;;24.80;100.00
48846;BME280;34665;51.886;5.436;2022-07-24T07:01:30;101703.22;;;25.05;100.00
48846;BME280;34665;51.886;5.436;2022-07-24T07:03:56;101708.34;;;24.70;100.00
48846;BME280;34665;51.886;5.436;2022-07-24T07:06:22;101711.56;;;24.52;100.00
48846;BME280;34665;51.886;5.436;2022-07-24T07:08:47;101716.72;;;24.43;100.00
48846;BME280;34665;51.886;5.436;2022-07-24T07:11:13;101718.75;;;24.89;100.00
48846;BME280;34665;51.886;5.436;2022-07-24T07:13:39;101720.78;;;24.35;100.00
48846;BME280;34665;51.886;5.436;2022-07-24T07:16:05;101709.91;;;24.51;100.00
48846;BME280;34665;51.886;5.436;2022-07-24T07:18:30;101716.44;;;24.39;100.00
48846;BME280;34665;51.886;5.436;2022-07-24T07:20:55;101711.56;;;24.52;100.00
48846;BME280;34665;51.886;5.436;2022-07-24T07:23:23;101735.34;;;24.56;100.00
48846;BME280;34665;51.886;5.436;2022-07-24T07:25:49;101714.06;;;24.69;100.00
48846;BME280;34665;51.886;5.436;2022-07-24T07:28:15;101720.41;;;24.90;100.00
48846;BME280;34665;51.886;5.436;2022-07-24T07:30:40;101716.03;;;24.79;100.00
48846;BME280;34665;51.886;5.436;2022-07-24T07:33:07;101716.06;;;25.56;100.00
48846;BME280;34665;51.886;5.436;2022-07-24T07:35:32;101718.16;;;25.96;100.00
48846;BME280;34665;51.886;5.436;2022-07-24T07:37:58;101714.97;;;25.62;100.00
48846;BME280;34665;51.886;5.436;2022-07-24T07:40:24;101722.06;;;25.74;100.00
48846;BME280;34665;51.886;5.436;2022-07-24T07:42:50;101715.50;;;25.70;100.00
48846;BME280;34665;51.886;5.436;2022-07-24T07:45:16;101720.25;;;26.35;100.00
48846;BME280;34665;51.886;5.436;2022-07-24T07:47:41;101731.25;;;26.30;100.00
48846;BME280;34665;51.886;5.436;2022-07-24T07:50:07;101725.09;;;26.48;100.00
48846;BME280;34665;51.886;5.436;2022-07-24T07:52:32;101723.50;;;26.42;100.00
48846;BME280;34665;51.886;5.436;2022-07-24T07:54:58;101729.28;;;26.36;100.00
48846;BME280;34665;51.886;5.436;2022-07-24T07:57:23;101723.03;;;26.30;100.00
48846;BME280;34665;51.886;5.436;2022-07-24T07:59:49;101719.19;;;26.31;100.00
48846;BME280;34665;51.886;5.436;2022-07-24T08:02:14;101711.22;;;26.80;100.00
48846;BME280;34665;51.886;5.436;2022-07-24T08:04:41;101716.88;;;26.54;100.00
48846;BME280;34665;51.886;5.436;2022-07-24T08:07:07;101720.41;;;27.04;100.00
48846;BME280;34665;51.886;5.436;2022-07-24T08:09:32;101722.41;;;26.94;100.00
48846;BME280;34665;51.886;5.436;2022-07-24T08:11:58;101722.09;;;26.95;100.00
48846;BME280;34665;51.886;5.436;2022-07-24T08:14:23;101729.03;;;26.27;100.00
48846;BME280;34665;51.886;5.436;2022-07-24T08:16:48;101728.03;;;26.68;100.00
48846;BME280;34665;51.886;5.436;2022-07-24T08:19:14;101734.91;;;26.65;100.00
48846;BME280;34665;51.886;5.436;2022-07-24T08:21:39;101724.09;;;26.89;100.00
48846;BME280;34665;51.886;5.436;2022-07-24T08:24:05;101727.00;;;26.98;100.00
48846;BME280;34665;51.886;5.436;2022-07-24T08:26:31;101724.63;;;27.21;100.00
48846;BME280;34665;51.886;5.436;2022-07-24T08:28:57;101725.44;;;27.86;100.00
48846;BME280;34665;51.886;5.436;2022-07-24T08:31:26;101722.03;;;27.94;100.00
48846;BME280;34665;51.886;5.436;2022-07-24T08:33:52;101732.25;;;28.37;100.00
48846;BME280;34665;51.886;5.436;2022-07-24T08:36:17;101728.25;;;28.48;100.00
48846;BME280;34665;51.886;5.436;2022-07-24T08:38:42;101733.16;;;28.52;100.00
48846;BME280;34665;51.886;5.436;2022-07-24T08:41:08;101731.81;;;28.05;100.00
48846;BME280;34665;51.886;5.436;2022-07-24T08:43:33;101725.31;;;27.72;100.00
48846;BME280;34665;51.886;5.436;2022-07-24T08:45:59;101723.09;;;27.74;100.00
48846;BME280;34665;51.886;5.436;2022-07-24T08:48:26;101712.72;;;27.66;100.00
48846;BME280;34665;51.886;5.436;2022-07-24T08:50:52;101713.47;;;27.42;100.00
48846;BME280;34665;51.886;5.436;2022-07-24T08:53:21;101706.19;;;27.61;100.00
48846;BME280;34665;51.886;5.436;2022-07-24T08:55:47;101703.00;;;27.49;100.00
48846;BME280;34665;51.886;5.436;2022-07-24T08:58:13;101724.22;;;27.73;100.00
48846;BME280;34665;51.886;5.436;2022-07-24T09:00:39;101704.78;;;27.88;100.00
48846;BME280;34665;51.886;5.436;2022-07-24T09:03:05;101705.50;;;28.24;100.00
48846;BME280;34665;51.886;5.436;2022-07-24T09:05:30;101713.06;;;28.32;100.00
48846;BME280;34665;51.886;5.436;2022-07-24T09:08:11;101720.13;;;27.95;100.00
48846;BME280;34665;51.886;5.436;2022-07-24T09:10:37;101707.59;;;28.08;100.00
48846;BME280;34665;51.886;5.436;2022-07-24T09:13:17;101700.91;;;28.38;100.00
48846;BME280;34665;51.886;5.436;2022-07-24T09:15:45;101700.53;;;28.64;100.00
48846;BME280;34665;51.886;5.436;2022-07-24T09:18:31;101692.69;;;29.57;99.15
48846;BME280;34665;51.886;5.436;2022-07-24T09:20:58;101687.78;;;29.07;100.00
48846;BME280;34665;51.886;5.436;2022-07-24T09:23:26;101681.50;;;29.53;100.00
48846;BME280;34665;51.886;5.436;2022-07-24T09:25:52;101685.88;;;28.50;100.00
48846;BME280;34665;51.886;5.436;2022-07-24T09:28:19;101691.97;;;29.51;100.00
48846;BME280;34665;51.886;5.436;2022-07-24T09:30:46;101687.84;;;29.34;100.00
48846;BME280;34665;51.886;5.436;2022-07-24T09:33:17;101693.91;;;29.17;100.00
48846;BME280;34665;51.886;5.436;2022-07-24T09:35:51;101688.19;;;29.47;100.00
48846;BME280;34665;51.886;5.436;2022-07-24T09:38:18;101696.34;;;29.52;100.00
48846;BME280;34665;51.886;5.436;2022-07-24T09:40:55;101709.25;;;29.71;100.00
48846;BME280;34665;51.886;5.436;2022-07-24T09:43:23;101711.66;;;30.79;97.02
48846;BME280;34665;51.886;5.436;2022-07-24T09:46:07;101703.03;;;30.07;100.00
48846;BME280;34665;51.886;5.436;2022-07-24T09:48:35;101706.63;;;30.58;98.28
48846;BME280;34665;51.886;5.436;2022-07-24T09:51:10;101703.28;;;31.07;94.12
48846;BME280;34665;51.886;5.436;2022-07-24T09:53:38;101686.69;;;31.70;90.21
48846;BME280;34665;51.886;5.436;2022-07-24T09:56:09;101697.06;;;32.05;79.01
48846;BME280;34665;51.886;5.436;2022-07-24T09:58:37;101698.28;;;32.57;76.27
48846;BME280;34665;51.886;5.436;2022-07-24T10:01:04;101696.63;;;33.09;75.48
48846;BME280;34665;51.886;5.436;2022-07-24T10:03:33;101694.63;;;33.66;71.78
48846;BME280;34665;51.886;5.436;2022-07-24T10:06:04;101698.06;;;33.15;72.04
48846;BME280;34665;51.886;5.436;2022-07-24T10:08:34;101700.31;;;33.30;68.97
48846;BME280;34665;51.886;5.436;2022-07-24T10:11:01;101704.44;;;34.02;63.95
48846;BME280;34665;51.886;5.436;2022-07-24T10:13:27;101705.13;;;34.41;61.94
48846;BME280;34665;51.886;5.436;2022-07-24T10:18:50;101702.00;;;35.19;55.97
48846;BME280;34665;51.886;5.436;2022-07-24T10:29:12;101688.63;;;35.58;53.75
48846;BME280;34665;51.886;5.436;2022-07-24T10:31:41;101696.09;;;36.20;51.05
48846;BME280;34665;51.886;5.436;2022-07-24T10:34:31;101698.31;;;36.14;51.13
48846;BME280;34665;51.886;5.436;2022-07-24T10:37:37;101699.19;;;36.72;48.31
48846;BME280;34665;51.886;5.436;2022-07-24T10:40:11;101696.34;;;36.84;46.03
48846;BME280;34665;51.886;5.436;2022-07-24T10:45:36;101692.75;;;36.55;46.04
48846;BME280;34665;51.886;5.436;2022-07-24T10:48:33;101680.75;;;36.67;45.77
48846;BME280;34665;51.886;5.436;2022-07-24T10:51:05;101686.53;;;38.03;42.81
48846;BME280;34665;51.886;5.436;2022-07-24T10:56:19;101685.72;;;38.03;42.07
48846;BME280;34665;51.886;5.436;2022-07-24T10:59:11;101678.72;;;37.93;41.49
48846;BME280;34665;51.886;5.436;2022-07-24T11:01:42;101680.50;;;37.49;41.73
48846;BME280;34665;51.886;5.436;2022-07-24T11:09:29;101668.69;;;38.08;40.51
48846;BME280;34665;51.886;5.436;2022-07-24T11:14:25;101669.78;;;38.23;40.35
48846;BME280;34665;51.886;5.436;2022-07-24T11:16:52;101666.53;;;38.01;40.58
48846;BME280;34665;51.886;5.436;2022-07-24T11:21:45;101664.31;;;37.91;41.78
48846;BME280;34665;51.886;5.436;2022-07-24T11:27:08;101665.63;;;38.95;39.02
48846;BME280;34665;51.886;5.436;2022-07-24T11:29:38;101667.41;;;39.30;37.06
48846;BME280;34665;51.886;5.436;2022-07-24T11:32:06;101660.53;;;40.05;37.13
48846;BME280;34665;51.886;5.436;2022-07-24T11:34:34;101655.47;;;39.84;36.22
48846;BME280;34665;51.886;5.436;2022-07-24T11:37:00;101667.03;;;40.47;34.80
48846;BME280;34665;51.886;5.436;2022-07-24T11:39:32;101663.59;;;41.03;34.53
48846;BME280;34665;51.886;5.436;2022-07-24T11:42:03;101661.13;;;41.46;33.44
48846;BME280;34665;51.886;5.436;2022-07-24T11:44:34;101658.47;;;40.33;34.41
48846;BME280;34665;51.886;5.436;2022-07-24T11:49:43;101661.44;;;40.85;34.46
48846;BME280;34665;51.886;5.436;2022-07-24T11:52:18;101631.16;;;39.92;35.99
48846;BME280;34665;51.886;5.436;2022-07-24T11:54:45;101648.22;;;40.85;33.72
48846;BME280;34665;51.886;5.436;2022-07-24T11:57:20;101643.63;;;42.70;31.40
48846;BME280;34665;51.886;5.436;2022-07-24T11:59:48;101650.81;;;41.61;32.86
48846;BME280;34665;51.886;5.436;2022-07-24T12:02:13;101626.22;;;40.88;33.88
48846;BME280;34665;51.886;5.436;2022-07-24T12:04:40;101625.41;;;42.13;32.52
48846;BME280;34665;51.886;5.436;2022-07-24T12:07:13;101627.81;;;42.19;32.77
48846;BME280;34665;51.886;5.436;2022-07-24T12:09:47;101627.63;;;41.75;33.42
48846;BME280;34665;51.886;5.436;2022-07-24T12:14:46;101616.13;;;40.79;34.69
48846;BME280;34665;51.886;5.436;2022-07-24T12:17:12;101613.44;;;40.94;35.32
48846;BME280;34665;51.886;5.436;2022-07-24T12:19:38;101617.81;;;42.25;32.42
48846;BME280;34665;51.886;5.436;2022-07-24T12:22:03;101608.41;;;41.81;33.59
48846;BME280;34665;51.886;5.436;2022-07-24T12:24:31;101622.06;;;41.82;32.43
48846;BME280;34665;51.886;5.436;2022-07-24T12:26:58;101602.94;;;42.21;33.14
48846;BME280;34665;51.886;5.436;2022-07-24T12:29:25;101610.59;;;42.27;32.43
48846;BME280;34665;51.886;5.436;2022-07-24T12:32:16;101607.25;;;41.85;33.00
48846;BME280;34665;51.886;5.436;2022-07-24T12:34:48;101598.09;;;41.29;33.99
48846;BME280;34665;51.886;5.436;2022-07-24T12:37:14;101603.03;;;41.50;33.64
48846;BME280;34665;51.886;5.436;2022-07-24T12:39:51;101600.41;;;41.87;33.18
48846;BME280;34665;51.886;5.436;2022-07-24T12:42:18;101600.59;;;43.24;31.41
48846;BME280;34665;51.886;5.436;2022-07-24T12:44:53;101614.56;;;43.75;29.96
48846;BME280;34665;51.886;5.436;2022-07-24T12:47:18;101593.69;;;44.44;29.00
48846;BME280;34665;51.886;5.436;2022-07-24T12:49:45;101590.88;;;43.62;29.95
48846;BME280;34665;51.886;5.436;2022-07-24T12:52:25;101577.25;;;43.46;29.55
48846;BME280;34665;51.886;5.436;2022-07-24T12:54:53;101580.34;;;43.88;29.71
48846;BME280;34665;51.886;5.436;2022-07-24T12:57:21;101583.22;;;44.40;28.78
48846;BME280;34665;51.886;5.436;2022-07-24T12:59:48;101579.13;;;45.40;28.04
48846;BME280;34665;51.886;5.436;2022-07-24T13:02:22;101571.31;;;42.64;30.53
48846;BME280;34665;51.886;5.436;2022-07-24T13:04:54;101571.28;;;42.38;31.51
48846;BME280;34665;51.886;5.436;2022-07-24T13:07:22;101555.53;;;43.46;30.03
48846;BME280;34665;51.886;5.436;2022-07-24T13:09:49;101562.44;;;44.20;29.01
48846;BME280;34665;51.886;5.436;2022-07-24T13:12:15;101561.13;;;43.61;29.94
48846;BME280;34665;51.886;5.436;2022-07-24T13:14:42;101555.94;;;43.48;29.58
48846;BME280;34665;51.886;5.436;2022-07-24T13:17:09;101554.03;;;42.40;31.26